Aeroporto :







RITROVATECI SU...

 
LOGIN :

Iscrizione | Disclaimer

   EN    FR    IT 

 









Sommario :    VFR   VFR Marginale   IFR   IFR Intensivo   IFR Molto Intensivo
Visibilità : 
Base nubi : 
>= 8 km
>= 3000ft
5 / 8 km
1000 / 3000 ft
1500m / 5 km
500 / 1000 ft
800 / 1500m
200 / 500 ft
< 800m
< 200 ft
Simboli :   Temporali  Nebbia  Neve Forte  Precipitazioni Forti  Vento > 20 kt






- Altitudine del aeroporto : 228 ft


KFSO - Franklin County State

ULTIMO METAR :
  • 250435Z AUTO 09003KT 10SM CLR 03/M01 A2995 RMK AO2 T00281015

METARs OBSOLETI :
  • 250416Z AUTO 00000KT 10SM CLR 03/M01 A2995 RMK AO2 T00331015
  • 250355Z AUTO 00000KT 10SM CLR 03/M02 A2994 RMK AO2 T00331016
  • 250335Z AUTO 00000KT 10SM CLR 03/M02 A2995 RMK AO2 T00321016
  • 250315Z AUTO 00000KT 10SM CLR 04/M02 A2994 RMK AO2 T00351016
  • 250256Z AUTO 00000KT 10SM CLR 03/M02 A2994 RMK AO2 T00321017
  • 250235Z AUTO 00000KT 10SM CLR 03/M02 A2994 RMK AO2 T00331024
  • 250216Z AUTO 00000KT 10SM CLR 04/M02 A2994 RMK AO2 T00391023
  • 250155Z AUTO 00000KT 10SM CLR 04/M02 A2994 RMK AO2 T00401020

TAF N/A



MetMap, La meteo Aeronautica in un colpo d'occhio ! - Copyright ORBIFLY Dicembre 2007 - Disclaimer

ORBIFLY MET'MAP TEAM :

Programmazione e sviluppo : Alexandra Zaïnal
Concezione : Baudouin d'Aumeries
Aiuto per la programmazione : Marc-Olivier Méhu
Supporto tecnico e logistico : Manuel Goepfert
Aiuto per la traduzione : Arnaldo La Scala

Contatto : metmap@orbifly.com




FONTI E CREDITI :

   NOAA